sensor_id;sensor_type;location;lat;lon;timestamp;temperature;humidity
41884;DHT22;27566;50.930;5.328;2023-08-08T00:02:15;14.10;83.10
41884;DHT22;27566;50.930;5.328;2023-08-08T00:04:41;14.10;83.20
41884;DHT22;27566;50.930;5.328;2023-08-08T00:07:07;14.10;83.30
41884;DHT22;27566;50.930;5.328;2023-08-08T00:09:33;14.10;83.70
41884;DHT22;27566;50.930;5.328;2023-08-08T00:11:59;14.00;83.80
41884;DHT22;27566;50.930;5.328;2023-08-08T00:14:25;14.10;83.90
41884;DHT22;27566;50.930;5.328;2023-08-08T00:16:51;14.00;84.00
41884;DHT22;27566;50.930;5.328;2023-08-08T00:19:17;14.00;84.10
41884;DHT22;27566;50.930;5.328;2023-08-08T00:21:42;14.00;84.10
41884;DHT22;27566;50.930;5.328;2023-08-08T00:24:08;14.00;84.30
41884;DHT22;27566;50.930;5.328;2023-08-08T00:26:34;14.00;84.40
41884;DHT22;27566;50.930;5.328;2023-08-08T00:29:00;14.00;84.60
41884;DHT22;27566;50.930;5.328;2023-08-08T00:31:25;14.00;84.90
41884;DHT22;27566;50.930;5.328;2023-08-08T00:33:51;14.00;85.00
41884;DHT22;27566;50.930;5.328;2023-08-08T00:36:17;14.00;85.10
41884;DHT22;27566;50.930;5.328;2023-08-08T00:38:43;14.10;85.50
41884;DHT22;27566;50.930;5.328;2023-08-08T00:41:08;14.00;85.10
41884;DHT22;27566;50.930;5.328;2023-08-08T00:43:34;14.00;85.00
41884;DHT22;27566;50.930;5.328;2023-08-08T00:46:00;14.00;85.00
41884;DHT22;27566;50.930;5.328;2023-08-08T00:48:26;14.00;85.10
41884;DHT22;27566;50.930;5.328;2023-08-08T00:50:52;14.00;85.20
41884;DHT22;27566;50.930;5.328;2023-08-08T00:53:18;14.00;85.40
41884;DHT22;27566;50.930;5.328;2023-08-08T00:55:53;14.00;85.30
41884;DHT22;27566;50.930;5.328;2023-08-08T00:58:19;14.00;85.40
41884;DHT22;27566;50.930;5.328;2023-08-08T01:00:45;14.00;85.50
41884;DHT22;27566;50.930;5.328;2023-08-08T01:03:11;14.00;85.60
41884;DHT22;27566;50.930;5.328;2023-08-08T01:05:47;14.00;85.60
41884;DHT22;27566;50.930;5.328;2023-08-08T01:08:16;13.90;85.70
41884;DHT22;27566;50.930;5.328;2023-08-08T01:10:44;13.90;85.70
41884;DHT22;27566;50.930;5.328;2023-08-08T01:13:13;13.90;85.80
41884;DHT22;27566;50.930;5.328;2023-08-08T01:15:41;13.90;86.00
41884;DHT22;27566;50.930;5.328;2023-08-08T01:18:32;13.90;86.10
41884;DHT22;27566;50.930;5.328;2023-08-08T01:32:38;13.80;86.40
41884;DHT22;27566;50.930;5.328;2023-08-08T01:35:04;13.70;86.60
41884;DHT22;27566;50.930;5.328;2023-08-08T01:37:34;13.70;86.80
41884;DHT22;27566;50.930;5.328;2023-08-08T01:40:01;13.70;87.10
41884;DHT22;27566;50.930;5.328;2023-08-08T01:42:29;13.70;87.20
41884;DHT22;27566;50.930;5.328;2023-08-08T01:45:01;13.70;87.40
41884;DHT22;27566;50.930;5.328;2023-08-08T01:47:28;13.70;87.50
41884;DHT22;27566;50.930;5.328;2023-08-08T01:49:53;13.70;87.50
41884;DHT22;27566;50.930;5.328;2023-08-08T01:52:19;13.70;87.60
41884;DHT22;27566;50.930;5.328;2023-08-08T01:54:45;13.60;87.60
41884;DHT22;27566;50.930;5.328;2023-08-08T01:57:10;13.60;87.70
41884;DHT22;27566;50.930;5.328;2023-08-08T01:59:37;13.60;88.00
41884;DHT22;27566;50.930;5.328;2023-08-08T02:02:03;13.60;88.10
41884;DHT22;27566;50.930;5.328;2023-08-08T02:04:29;13.60;88.10
41884;DHT22;27566;50.930;5.328;2023-08-08T02:06:55;13.60;88.20
41884;DHT22;27566;50.930;5.328;2023-08-08T02:09:21;13.60;88.40
41884;DHT22;27566;50.930;5.328;2023-08-08T02:11:46;13.60;88.50
41884;DHT22;27566;50.930;5.328;2023-08-08T02:14:12;13.60;88.70
41884;DHT22;27566;50.930;5.328;2023-08-08T02:16:38;13.60;88.70
41884;DHT22;27566;50.930;5.328;2023-08-08T02:19:05;13.60;88.70
41884;DHT22;27566;50.930;5.328;2023-08-08T02:21:31;13.50;88.70
41884;DHT22;27566;50.930;5.328;2023-08-08T02:23:56;13.50;88.90
41884;DHT22;27566;50.930;5.328;2023-08-08T02:26:22;13.50;89.00
41884;DHT22;27566;50.930;5.328;2023-08-08T02:28:48;13.50;89.10
41884;DHT22;27566;50.930;5.328;2023-08-08T02:31:14;13.50;89.20
41884;DHT22;27566;50.930;5.328;2023-08-08T02:33:48;13.50;89.30
41884;DHT22;27566;50.930;5.328;2023-08-08T02:36:16;13.50;89.30
41884;DHT22;27566;50.930;5.328;2023-08-08T02:38:42;13.50;89.30
41884;DHT22;27566;50.930;5.328;2023-08-08T02:41:08;13.50;89.50
41884;DHT22;27566;50.930;5.328;2023-08-08T02:43:33;13.50;89.50
41884;DHT22;27566;50.930;5.328;2023-08-08T02:45:59;13.40;89.60
41884;DHT22;27566;50.930;5.328;2023-08-08T02:48:25;13.40;89.80
41884;DHT22;27566;50.930;5.328;2023-08-08T02:50:51;13.50;89.80
41884;DHT22;27566;50.930;5.328;2023-08-08T02:53:16;13.40;89.80
41884;DHT22;27566;50.930;5.328;2023-08-08T02:55:42;13.40;89.80
41884;DHT22;27566;50.930;5.328;2023-08-08T02:58:08;13.50;90.20
41884;DHT22;27566;50.930;5.328;2023-08-08T03:00:33;13.50;90.20
41884;DHT22;27566;50.930;5.328;2023-08-08T03:02:59;13.50;90.20
41884;DHT22;27566;50.930;5.328;2023-08-08T03:05:25;13.40;90.20
41884;DHT22;27566;50.930;5.328;2023-08-08T03:07:51;13.50;90.30
41884;DHT22;27566;50.930;5.328;2023-08-08T03:10:16;13.50;90.20
41884;DHT22;27566;50.930;5.328;2023-08-08T03:12:42;13.40;90.20
41884;DHT22;27566;50.930;5.328;2023-08-08T03:15:08;13.40;90.20
41884;DHT22;27566;50.930;5.328;2023-08-08T03:17:34;13.40;90.30
41884;DHT22;27566;50.930;5.328;2023-08-08T03:20:00;13.40;90.40
41884;DHT22;27566;50.930;5.328;2023-08-08T03:22:26;13.40;90.30
41884;DHT22;27566;50.930;5.328;2023-08-08T03:24:52;13.50;90.40
41884;DHT22;27566;50.930;5.328;2023-08-08T03:27:18;13.40;90.40
41884;DHT22;27566;50.930;5.328;2023-08-08T03:29:43;13.50;90.40
41884;DHT22;27566;50.930;5.328;2023-08-08T03:32:09;13.40;90.50
41884;DHT22;27566;50.930;5.328;2023-08-08T03:34:35;13.50;90.60
41884;DHT22;27566;50.930;5.328;2023-08-08T03:37:01;13.50;90.50
41884;DHT22;27566;50.930;5.328;2023-08-08T03:39:26;13.50;90.80
41884;DHT22;27566;50.930;5.328;2023-08-08T03:41:52;13.50;90.60
41884;DHT22;27566;50.930;5.328;2023-08-08T03:44:18;13.50;90.60
41884;DHT22;27566;50.930;5.328;2023-08-08T03:46:43;13.40;90.50
41884;DHT22;27566;50.930;5.328;2023-08-08T03:49:09;13.40;90.50
41884;DHT22;27566;50.930;5.328;2023-08-08T03:51:35;13.50;90.60
41884;DHT22;27566;50.930;5.328;2023-08-08T03:54:01;13.50;90.60
41884;DHT22;27566;50.930;5.328;2023-08-08T03:56:26;13.40;90.60
41884;DHT22;27566;50.930;5.328;2023-08-08T03:58:52;13.40;90.60
41884;DHT22;27566;50.930;5.328;2023-08-08T04:01:18;13.40;90.60
41884;DHT22;27566;50.930;5.328;2023-08-08T04:03:44;13.40;90.60
41884;DHT22;27566;50.930;5.328;2023-08-08T04:06:10;13.40;90.50
41884;DHT22;27566;50.930;5.328;2023-08-08T04:08:35;13.40;90.60
41884;DHT22;27566;50.930;5.328;2023-08-08T04:11:01;13.40;90.60
41884;DHT22;27566;50.930;5.328;2023-08-08T04:13:27;13.40;90.60
41884;DHT22;27566;50.930;5.328;2023-08-08T04:15:52;13.40;90.70
41884;DHT22;27566;50.930;5.328;2023-08-08T04:18:18;13.40;90.70
41884;DHT22;27566;50.930;5.328;2023-08-08T04:20:45;13.40;90.70
41884;DHT22;27566;50.930;5.328;2023-08-08T04:23:12;13.40;90.70
41884;DHT22;27566;50.930;5.328;2023-08-08T04:25:38;13.40;90.70
41884;DHT22;27566;50.930;5.328;2023-08-08T04:28:04;13.40;90.70
41884;DHT22;27566;50.930;5.328;2023-08-08T04:30:30;13.50;90.80
41884;DHT22;27566;50.930;5.328;2023-08-08T04:32:55;13.50;90.80
41884;DHT22;27566;50.930;5.328;2023-08-08T04:35:21;13.60;90.80
41884;DHT22;27566;50.930;5.328;2023-08-08T04:37:47;13.60;90.80
41884;DHT22;27566;50.930;5.328;2023-08-08T04:40:13;13.70;90.90
41884;DHT22;27566;50.930;5.328;2023-08-08T04:42:39;13.70;90.90
41884;DHT22;27566;50.930;5.328;2023-08-08T04:45:05;13.80;90.80
41884;DHT22;27566;50.930;5.328;2023-08-08T04:47:31;13.80;90.80
41884;DHT22;27566;50.930;5.328;2023-08-08T04:49:57;13.90;90.80
41884;DHT22;27566;50.930;5.328;2023-08-08T04:52:23;14.00;90.70
41884;DHT22;27566;50.930;5.328;2023-08-08T04:54:49;14.10;90.70
41884;DHT22;27566;50.930;5.328;2023-08-08T04:57:15;14.20;90.70
41884;DHT22;27566;50.930;5.328;2023-08-08T04:59:41;14.30;90.90
41884;DHT22;27566;50.930;5.328;2023-08-08T05:02:08;14.80;91.20
41884;DHT22;27566;50.930;5.328;2023-08-08T05:04:34;15.50;90.40
41884;DHT22;27566;50.930;5.328;2023-08-08T05:06:59;15.80;89.50
41884;DHT22;27566;50.930;5.328;2023-08-08T05:09:25;16.40;88.80
41884;DHT22;27566;50.930;5.328;2023-08-08T05:11:54;17.10;86.70
41884;DHT22;27566;50.930;5.328;2023-08-08T05:14:20;17.90;84.60
41884;DHT22;27566;50.930;5.328;2023-08-08T05:16:46;18.60;81.30
41884;DHT22;27566;50.930;5.328;2023-08-08T05:19:12;19.20;78.50
41884;DHT22;27566;50.930;5.328;2023-08-08T05:21:37;19.80;75.70
41884;DHT22;27566;50.930;5.328;2023-08-08T05:24:16;20.40;73.30
41884;DHT22;27566;50.930;5.328;2023-08-08T05:26:41;21.00;70.70
41884;DHT22;27566;50.930;5.328;2023-08-08T05:29:07;21.50;67.30
41884;DHT22;27566;50.930;5.328;2023-08-08T05:32:55;22.10;64.80
41884;DHT22;27566;50.930;5.328;2023-08-08T05:35:21;23.00;61.70
41884;DHT22;27566;50.930;5.328;2023-08-08T05:37:46;23.70;59.50
41884;DHT22;27566;50.930;5.328;2023-08-08T05:40:12;24.30;57.00
41884;DHT22;27566;50.930;5.328;2023-08-08T05:42:38;24.70;55.40
41884;DHT22;27566;50.930;5.328;2023-08-08T05:45:04;25.30;53.60
41884;DHT22;27566;50.930;5.328;2023-08-08T05:47:31;25.60;52.90
41884;DHT22;27566;50.930;5.328;2023-08-08T05:49:57;25.70;51.70
41884;DHT22;27566;50.930;5.328;2023-08-08T05:52:23;25.80;51.10
41884;DHT22;27566;50.930;5.328;2023-08-08T05:54:48;25.70;50.70
41884;DHT22;27566;50.930;5.328;2023-08-08T05:57:14;25.70;50.80
41884;DHT22;27566;50.930;5.328;2023-08-08T05:59:40;25.70;49.90
41884;DHT22;27566;50.930;5.328;2023-08-08T06:02:06;25.00;51.40
41884;DHT22;27566;50.930;5.328;2023-08-08T06:04:32;24.80;51.60
41884;DHT22;27566;50.930;5.328;2023-08-08T06:06:57;24.20;52.30
41884;DHT22;27566;50.930;5.328;2023-08-08T06:09:24;23.60;54.00
41884;DHT22;27566;50.930;5.328;2023-08-08T06:11:50;23.00;54.60
41884;DHT22;27566;50.930;5.328;2023-08-08T06:14:15;22.40;56.20
41884;DHT22;27566;50.930;5.328;2023-08-08T06:16:42;22.10;57.00
41884;DHT22;27566;50.930;5.328;2023-08-08T06:19:08;21.80;58.10
41884;DHT22;27566;50.930;5.328;2023-08-08T06:21:35;21.90;58.30
41884;DHT22;27566;50.930;5.328;2023-08-08T06:24:01;22.50;57.80
41884;DHT22;27566;50.930;5.328;2023-08-08T06:26:26;23.60;55.70
41884;DHT22;27566;50.930;5.328;2023-08-08T06:28:52;23.70;54.30
41884;DHT22;27566;50.930;5.328;2023-08-08T06:31:18;23.50;55.10
41884;DHT22;27566;50.930;5.328;2023-08-08T06:33:45;23.40;55.40
41884;DHT22;27566;50.930;5.328;2023-08-08T06:36:10;23.30;55.40
41884;DHT22;27566;50.930;5.328;2023-08-08T06:38:36;23.10;56.60
41884;DHT22;27566;50.930;5.328;2023-08-08T06:41:02;22.80;57.00
41884;DHT22;27566;50.930;5.328;2023-08-08T06:43:29;22.30;57.70
41884;DHT22;27566;50.930;5.328;2023-08-08T06:45:56;22.00;58.40
41884;DHT22;27566;50.930;5.328;2023-08-08T06:48:22;21.80;59.20
41884;DHT22;27566;50.930;5.328;2023-08-08T06:50:48;21.80;59.40
41884;DHT22;27566;50.930;5.328;2023-08-08T06:53:14;22.00;59.30
41884;DHT22;27566;50.930;5.328;2023-08-08T06:55:39;22.00;59.10
41884;DHT22;27566;50.930;5.328;2023-08-08T06:58:05;22.10;58.90
41884;DHT22;27566;50.930;5.328;2023-08-08T07:00:31;22.20;58.70
41884;DHT22;27566;50.930;5.328;2023-08-08T07:02:57;22.30;58.80
41884;DHT22;27566;50.930;5.328;2023-08-08T07:05:22;22.30;58.40
41884;DHT22;27566;50.930;5.328;2023-08-08T07:07:50;22.40;58.70
41884;DHT22;27566;50.930;5.328;2023-08-08T07:10:16;22.30;58.10
41884;DHT22;27566;50.930;5.328;2023-08-08T07:12:42;22.00;58.40
41884;DHT22;27566;50.930;5.328;2023-08-08T07:15:09;21.80;59.30
41884;DHT22;27566;50.930;5.328;2023-08-08T07:17:35;21.50;59.60
41884;DHT22;27566;50.930;5.328;2023-08-08T07:20:00;21.40;60.40
41884;DHT22;27566;50.930;5.328;2023-08-08T07:22:27;21.20;60.60
41884;DHT22;27566;50.930;5.328;2023-08-08T07:24:53;21.00;61.10
41884;DHT22;27566;50.930;5.328;2023-08-08T07:27:19;21.00;61.90
41884;DHT22;27566;50.930;5.328;2023-08-08T07:29:45;21.10;62.10
41884;DHT22;27566;50.930;5.328;2023-08-08T07:32:10;21.10;62.10
41884;DHT22;27566;50.930;5.328;2023-08-08T07:34:36;21.20;62.10
41884;DHT22;27566;50.930;5.328;2023-08-08T07:37:02;21.40;61.30
41884;DHT22;27566;50.930;5.328;2023-08-08T07:39:28;21.70;60.80
41884;DHT22;27566;50.930;5.328;2023-08-08T07:41:54;21.80;60.40
41884;DHT22;27566;50.930;5.328;2023-08-08T07:44:20;21.80;60.00
41884;DHT22;27566;50.930;5.328;2023-08-08T07:46:46;21.80;60.10
41884;DHT22;27566;50.930;5.328;2023-08-08T07:49:13;21.90;60.00
41884;DHT22;27566;50.930;5.328;2023-08-08T07:51:39;22.20;59.50
41884;DHT22;27566;50.930;5.328;2023-08-08T07:54:05;22.40;59.00
41884;DHT22;27566;50.930;5.328;2023-08-08T07:56:34;22.70;58.80
41884;DHT22;27566;50.930;5.328;2023-08-08T07:59:00;23.10;57.60
41884;DHT22;27566;50.930;5.328;2023-08-08T08:01:27;23.50;56.50
41884;DHT22;27566;50.930;5.328;2023-08-08T08:03:53;23.70;55.70
41884;DHT22;27566;50.930;5.328;2023-08-08T08:06:19;23.90;55.20
41884;DHT22;27566;50.930;5.328;2023-08-08T08:08:45;24.20;54.50
41884;DHT22;27566;50.930;5.328;2023-08-08T08:11:10;24.30;54.00
41884;DHT22;27566;50.930;5.328;2023-08-08T08:13:41;24.40;53.10
41884;DHT22;27566;50.930;5.328;2023-08-08T08:16:07;24.40;52.70
41884;DHT22;27566;50.930;5.328;2023-08-08T08:18:33;24.40;52.30
41884;DHT22;27566;50.930;5.328;2023-08-08T08:21:00;24.40;52.60
41884;DHT22;27566;50.930;5.328;2023-08-08T08:23:26;24.30;52.70
41884;DHT22;27566;50.930;5.328;2023-08-08T08:25:52;24.30;52.70
41884;DHT22;27566;50.930;5.328;2023-08-08T08:28:18;24.30;53.10
41884;DHT22;27566;50.930;5.328;2023-08-08T08:30:44;24.30;52.90
41884;DHT22;27566;50.930;5.328;2023-08-08T08:33:09;24.40;53.10
41884;DHT22;27566;50.930;5.328;2023-08-08T08:35:35;24.40;53.20
41884;DHT22;27566;50.930;5.328;2023-08-08T08:38:03;24.60;53.10
41884;DHT22;27566;50.930;5.328;2023-08-08T08:40:31;24.70;52.70
41884;DHT22;27566;50.930;5.328;2023-08-08T08:43:00;24.70;52.60
41884;DHT22;27566;50.930;5.328;2023-08-08T08:45:27;24.70;52.50
41884;DHT22;27566;50.930;5.328;2023-08-08T08:47:56;24.90;52.30
41884;DHT22;27566;50.930;5.328;2023-08-08T08:50:23;24.90;52.30
41884;DHT22;27566;50.930;5.328;2023-08-08T08:52:53;24.90;51.80
41884;DHT22;27566;50.930;5.328;2023-08-08T08:55:21;24.60;51.90
41884;DHT22;27566;50.930;5.328;2023-08-08T08:57:49;24.60;52.10
41884;DHT22;27566;50.930;5.328;2023-08-08T09:00:16;24.60;52.20
41884;DHT22;27566;50.930;5.328;2023-08-08T09:02:42;24.70;51.40
41884;DHT22;27566;50.930;5.328;2023-08-08T09:05:08;24.70;51.70
41884;DHT22;27566;50.930;5.328;2023-08-08T09:07:36;24.90;51.50
41884;DHT22;27566;50.930;5.328;2023-08-08T09:10:02;25.00;50.80
41884;DHT22;27566;50.930;5.328;2023-08-08T09:12:30;25.10;49.90
41884;DHT22;27566;50.930;5.328;2023-08-08T09:14:57;25.10;49.40
41884;DHT22;27566;50.930;5.328;2023-08-08T09:17:27;25.20;49.50
41884;DHT22;27566;50.930;5.328;2023-08-08T09:19:54;25.50;48.70
41884;DHT22;27566;50.930;5.328;2023-08-08T09:22:26;25.50;47.90
41884;DHT22;27566;50.930;5.328;2023-08-08T09:24:53;25.40;48.00
41884;DHT22;27566;50.930;5.328;2023-08-08T09:27:19;25.40;48.00
41884;DHT22;27566;50.930;5.328;2023-08-08T09:29:45;25.50;47.90
41884;DHT22;27566;50.930;5.328;2023-08-08T09:32:12;25.50;48.30
41884;DHT22;27566;50.930;5.328;2023-08-08T09:34:43;25.60;47.70
41884;DHT22;27566;50.930;5.328;2023-08-08T09:37:10;25.70;48.00
41884;DHT22;27566;50.930;5.328;2023-08-08T09:39:36;25.70;47.80
41884;DHT22;27566;50.930;5.328;2023-08-08T09:42:03;25.70;46.80
41884;DHT22;27566;50.930;5.328;2023-08-08T09:44:30;25.70;47.10
41884;DHT22;27566;50.930;5.328;2023-08-08T09:46:57;25.80;47.10
41884;DHT22;27566;50.930;5.328;2023-08-08T09:49:23;26.10;46.90
41884;DHT22;27566;50.930;5.328;2023-08-08T09:51:49;26.40;46.30
41884;DHT22;27566;50.930;5.328;2023-08-08T09:54:17;26.50;45.70
41884;DHT22;27566;50.930;5.328;2023-08-08T09:56:43;26.30;45.50
41884;DHT22;27566;50.930;5.328;2023-08-08T09:59:10;26.10;45.90
41884;DHT22;27566;50.930;5.328;2023-08-08T10:01:38;26.00;46.40
41884;DHT22;27566;50.930;5.328;2023-08-08T10:04:06;25.90;46.20
41884;DHT22;27566;50.930;5.328;2023-08-08T10:06:32;25.60;46.70
41884;DHT22;27566;50.930;5.328;2023-08-08T10:08:59;25.70;47.70
41884;DHT22;27566;50.930;5.328;2023-08-08T10:11:26;25.80;47.20
41884;DHT22;27566;50.930;5.328;2023-08-08T10:13:53;25.90;46.10
41884;DHT22;27566;50.930;5.328;2023-08-08T10:16:19;25.90;45.70
41884;DHT22;27566;50.930;5.328;2023-08-08T10:18:54;26.10;45.80
41884;DHT22;27566;50.930;5.328;2023-08-08T10:21:20;26.20;45.50
41884;DHT22;27566;50.930;5.328;2023-08-08T10:23:47;26.50;45.70
41884;DHT22;27566;50.930;5.328;2023-08-08T10:26:19;26.60;44.60
41884;DHT22;27566;50.930;5.328;2023-08-08T10:28:59;26.20;45.00
41884;DHT22;27566;50.930;5.328;2023-08-08T10:31:25;25.70;45.70
41884;DHT22;27566;50.930;5.328;2023-08-08T10:34:04;25.30;46.30
41884;DHT22;27566;50.930;5.328;2023-08-08T10:37:04;24.80;47.00
41884;DHT22;27566;50.930;5.328;2023-08-08T10:39:31;24.40;48.00
41884;DHT22;27566;50.930;5.328;2023-08-08T10:42:03;24.10;48.90
41884;DHT22;27566;50.930;5.328;2023-08-08T10:44:29;23.90;49.50
41884;DHT22;27566;50.930;5.328;2023-08-08T10:46:55;23.80;49.70
41884;DHT22;27566;50.930;5.328;2023-08-08T10:49:22;23.80;50.10
41884;DHT22;27566;50.930;5.328;2023-08-08T10:51:49;23.60;50.60
41884;DHT22;27566;50.930;5.328;2023-08-08T10:54:24;23.50;50.70
41884;DHT22;27566;50.930;5.328;2023-08-08T10:56:55;23.30;51.30
41884;DHT22;27566;50.930;5.328;2023-08-08T10:59:23;23.20;51.90
41884;DHT22;27566;50.930;5.328;2023-08-08T11:01:51;23.10;51.90
41884;DHT22;27566;50.930;5.328;2023-08-08T11:04:22;22.90;51.80
41884;DHT22;27566;50.930;5.328;2023-08-08T11:06:49;23.00;52.10
41884;DHT22;27566;50.930;5.328;2023-08-08T11:09:16;23.20;51.80
41884;DHT22;27566;50.930;5.328;2023-08-08T11:11:44;23.60;51.50
41884;DHT22;27566;50.930;5.328;2023-08-08T11:14:18;24.00;50.90
41884;DHT22;27566;50.930;5.328;2023-08-08T11:16:45;24.40;49.80
41884;DHT22;27566;50.930;5.328;2023-08-08T11:19:12;24.50;48.80
41884;DHT22;27566;50.930;5.328;2023-08-08T11:21:41;24.40;49.20
41884;DHT22;27566;50.930;5.328;2023-08-08T11:24:08;24.30;49.70
41884;DHT22;27566;50.930;5.328;2023-08-08T11:26:35;24.20;49.50
41884;DHT22;27566;50.930;5.328;2023-08-08T11:29:02;24.20;49.40
41884;DHT22;27566;50.930;5.328;2023-08-08T11:31:28;24.20;49.40
41884;DHT22;27566;50.930;5.328;2023-08-08T11:33:55;24.00;49.20
41884;DHT22;27566;50.930;5.328;2023-08-08T11:36:22;23.70;49.90
41884;DHT22;27566;50.930;5.328;2023-08-08T11:38:50;23.40;50.20
41884;DHT22;27566;50.930;5.328;2023-08-08T11:41:20;23.10;50.40
41884;DHT22;27566;50.930;5.328;2023-08-08T11:43:46;22.80;51.10
41884;DHT22;27566;50.930;5.328;2023-08-08T11:46:13;22.60;51.80
41884;DHT22;27566;50.930;5.328;2023-08-08T11:48:39;22.50;52.20
41884;DHT22;27566;50.930;5.328;2023-08-08T11:51:06;22.30;52.80
41884;DHT22;27566;50.930;5.328;2023-08-08T11:53:32;22.10;53.30
41884;DHT22;27566;50.930;5.328;2023-08-08T11:56:02;21.90;53.50
41884;DHT22;27566;50.930;5.328;2023-08-08T11:58:29;21.60;54.40
41884;DHT22;27566;50.930;5.328;2023-08-08T12:00:56;21.50;55.30
41884;DHT22;27566;50.930;5.328;2023-08-08T12:03:24;21.30;56.00
41884;DHT22;27566;50.930;5.328;2023-08-08T12:05:51;21.30;56.60
41884;DHT22;27566;50.930;5.328;2023-08-08T12:08:20;21.50;56.90
41884;DHT22;27566;50.930;5.328;2023-08-08T12:10:52;22.00;56.30
41884;DHT22;27566;50.930;5.328;2023-08-08T12:13:21;22.70;54.60
41884;DHT22;27566;50.930;5.328;2023-08-08T12:15:47;23.30;53.20
41884;DHT22;27566;50.930;5.328;2023-08-08T12:18:16;23.70;51.50
41884;DHT22;27566;50.930;5.328;2023-08-08T12:20:43;24.00;50.90
41884;DHT22;27566;50.930;5.328;2023-08-08T12:23:10;24.20;49.70
41884;DHT22;27566;50.930;5.328;2023-08-08T12:25:36;24.40;49.20
41884;DHT22;27566;50.930;5.328;2023-08-08T12:28:02;24.60;49.00
41884;DHT22;27566;50.930;5.328;2023-08-08T12:30:28;24.70;48.60
41884;DHT22;27566;50.930;5.328;2023-08-08T12:32:54;25.00;48.40
41884;DHT22;27566;50.930;5.328;2023-08-08T12:35:20;25.20;47.90
41884;DHT22;27566;50.930;5.328;2023-08-08T12:37:46;25.50;47.20
41884;DHT22;27566;50.930;5.328;2023-08-08T12:40:13;25.70;47.50
41884;DHT22;27566;50.930;5.328;2023-08-08T12:42:39;25.90;47.20
41884;DHT22;27566;50.930;5.328;2023-08-08T12:45:06;26.10;46.60
41884;DHT22;27566;50.930;5.328;2023-08-08T12:47:32;26.20;45.60
41884;DHT22;27566;50.930;5.328;2023-08-08T12:50:02;26.40;44.30
41884;DHT22;27566;50.930;5.328;2023-08-08T12:52:28;26.40;44.00
41884;DHT22;27566;50.930;5.328;2023-08-08T12:54:55;26.10;43.50
41884;DHT22;27566;50.930;5.328;2023-08-08T12:57:20;25.90;44.20
41884;DHT22;27566;50.930;5.328;2023-08-08T12:59:46;26.10;44.40
41884;DHT22;27566;50.930;5.328;2023-08-08T13:02:12;26.20;43.60
41884;DHT22;27566;50.930;5.328;2023-08-08T13:04:38;26.30;42.70
41884;DHT22;27566;50.930;5.328;2023-08-08T13:07:04;26.50;41.90
41884;DHT22;27566;50.930;5.328;2023-08-08T13:09:30;26.60;41.70
41884;DHT22;27566;50.930;5.328;2023-08-08T13:11:55;26.80;41.40
41884;DHT22;27566;50.930;5.328;2023-08-08T13:14:21;26.70;40.70
41884;DHT22;27566;50.930;5.328;2023-08-08T13:16:47;26.30;40.70
41884;DHT22;27566;50.930;5.328;2023-08-08T13:19:13;25.90;42.00
41884;DHT22;27566;50.930;5.328;2023-08-08T13:21:40;25.80;42.90
41884;DHT22;27566;50.930;5.328;2023-08-08T13:24:06;25.80;43.10
41884;DHT22;27566;50.930;5.328;2023-08-08T13:26:34;25.70;43.10
41884;DHT22;27566;50.930;5.328;2023-08-08T13:29:00;25.50;43.30
41884;DHT22;27566;50.930;5.328;2023-08-08T13:31:26;25.40;43.50
41884;DHT22;27566;50.930;5.328;2023-08-08T13:33:52;25.50;43.70
41884;DHT22;27566;50.930;5.328;2023-08-08T13:36:18;25.70;43.20
41884;DHT22;27566;50.930;5.328;2023-08-08T13:38:43;25.90;43.90
41884;DHT22;27566;50.930;5.328;2023-08-08T13:41:09;26.10;44.30
41884;DHT22;27566;50.930;5.328;2023-08-08T13:43:35;26.20;43.30
41884;DHT22;27566;50.930;5.328;2023-08-08T13:46:01;26.40;42.60
41884;DHT22;27566;50.930;5.328;2023-08-08T13:48:29;26.40;42.20
41884;DHT22;27566;50.930;5.328;2023-08-08T13:50:54;26.30;41.90
41884;DHT22;27566;50.930;5.328;2023-08-08T13:53:20;26.40;41.90
41884;DHT22;27566;50.930;5.328;2023-08-08T13:55:46;26.40;42.10
41884;DHT22;27566;50.930;5.328;2023-08-08T13:58:12;26.30;41.40
41884;DHT22;27566;50.930;5.328;2023-08-08T14:00:37;26.20;41.90
41884;DHT22;27566;50.930;5.328;2023-08-08T14:03:05;26.00;42.20
41884;DHT22;27566;50.930;5.328;2023-08-08T14:05:30;25.70;42.60
41884;DHT22;27566;50.930;5.328;2023-08-08T14:07:57;25.40;43.10
41884;DHT22;27566;50.930;5.328;2023-08-08T14:10:22;25.20;43.90
41884;DHT22;27566;50.930;5.328;2023-08-08T14:12:48;25.10;44.40
41884;DHT22;27566;50.930;5.328;2023-08-08T14:15:14;25.20;44.80
41884;DHT22;27566;50.930;5.328;2023-08-08T14:17:40;25.20;44.50
41884;DHT22;27566;50.930;5.328;2023-08-08T14:20:06;25.20;45.10
41884;DHT22;27566;50.930;5.328;2023-08-08T14:22:34;25.20;44.70
41884;DHT22;27566;50.930;5.328;2023-08-08T14:25:00;25.10;44.50
41884;DHT22;27566;50.930;5.328;2023-08-08T14:27:26;25.00;44.70
41884;DHT22;27566;50.930;5.328;2023-08-08T14:29:51;24.90;45.10
41884;DHT22;27566;50.930;5.328;2023-08-08T14:32:17;24.90;45.60
41884;DHT22;27566;50.930;5.328;2023-08-08T14:34:43;25.00;46.00
41884;DHT22;27566;50.930;5.328;2023-08-08T14:37:09;25.20;46.00
41884;DHT22;27566;50.930;5.328;2023-08-08T14:39:35;25.50;44.90
41884;DHT22;27566;50.930;5.328;2023-08-08T14:42:01;25.80;44.80
41884;DHT22;27566;50.930;5.328;2023-08-08T14:44:27;26.10;44.10
41884;DHT22;27566;50.930;5.328;2023-08-08T14:46:52;26.30;43.50
41884;DHT22;27566;50.930;5.328;2023-08-08T14:49:18;26.20;43.00
41884;DHT22;27566;50.930;5.328;2023-08-08T14:51:44;26.20;43.80
41884;DHT22;27566;50.930;5.328;2023-08-08T14:54:10;26.20;43.80
41884;DHT22;27566;50.930;5.328;2023-08-08T14:56:36;26.20;43.90
41884;DHT22;27566;50.930;5.328;2023-08-08T14:59:02;26.20;43.90
41884;DHT22;27566;50.930;5.328;2023-08-08T15:01:28;26.20;43.80
41884;DHT22;27566;50.930;5.328;2023-08-08T15:03:54;26.20;43.60
41884;DHT22;27566;50.930;5.328;2023-08-08T15:06:21;26.20;43.90
41884;DHT22;27566;50.930;5.328;2023-08-08T15:08:47;26.10;43.40
41884;DHT22;27566;50.930;5.328;2023-08-08T15:11:16;26.00;43.30
41884;DHT22;27566;50.930;5.328;2023-08-08T15:13:42;25.80;43.00
41884;DHT22;27566;50.930;5.328;2023-08-08T15:16:08;25.60;44.10
41884;DHT22;27566;50.930;5.328;2023-08-08T15:18:34;25.50;43.70
41884;DHT22;27566;50.930;5.328;2023-08-08T15:21:00;25.40;43.90
41884;DHT22;27566;50.930;5.328;2023-08-08T15:23:26;25.40;43.60
41884;DHT22;27566;50.930;5.328;2023-08-08T15:25:52;25.40;43.60
41884;DHT22;27566;50.930;5.328;2023-08-08T15:28:20;25.60;43.80
41884;DHT22;27566;50.930;5.328;2023-08-08T15:30:46;25.80;43.30
41884;DHT22;27566;50.930;5.328;2023-08-08T15:33:12;25.90;43.20
41884;DHT22;27566;50.930;5.328;2023-08-08T15:35:38;25.80;43.10
41884;DHT22;27566;50.930;5.328;2023-08-08T15:38:04;25.70;43.40
41884;DHT22;27566;50.930;5.328;2023-08-08T15:40:30;25.50;44.10